Date,TemperatureHighF,TemperatureAvgF,TemperatureLowF,DewpointHighF,DewpointAvgF,DewpointLowF,HumidityHigh,HumidityAvg,HumidityLow,PressureMaxIn,PressureMinIn,WindSpeedMaxMPH,WindSpeedAvgMPH,GustSpeedMaxMPH,PrecipitationSumIn
2013-1-1,11,10,6,-100,-100,-100,0,0,100,0.00,40.00,0,-999,0,0.00
2013-1-2,23,13,6,-100,-100,-100,0,0,100,0.00,40.00,0,-999,0,0.00
2013-1-3,25,17,8,-100,-100,-100,0,0,100,0.00,40.00,0,-999,0,0.00
2013-1-4,29,23,18,-100,-100,-100,0,0,100,0.00,40.00,0,-999,0,0.00
2013-1-5,33,25,17,-100,-100,-100,0,0,100,0.00,40.00,0,-999,0,0.00
2013-1-6,36,30,24,-100,-100,-100,0,0,100,0.00,40.00,0,-999,0,0.00
2013-1-7,36,28,24,-100,-100,-100,0,0,100,0.00,40.00,0,-999,0,0.00
2013-1-8,31,28,24,-100,-100,-100,0,0,100,0.00,40.00,0,-999,0,0.00
2013-1-9,41,32,24,-100,-100,-100,0,0,100,0.00,40.00,0,-999,0,0.00
2013-1-10,43,30,15,-100,-100,-100,0,0,100,0.00,40.00,0,-999,0,0.02
2013-1-11,16,11,8,-100,-100,-100,0,0,100,0.00,40.00,0,-999,0,0.04
2013-1-12,12,5,-7,-100,-100,-100,0,0,100,0.00,40.00,0,-999,0,0.02
2013-1-13,-3,-4,-5,-100,-100,-100,0,0,100,0.00,40.00,0,-999,0,0.00
2013-1-14,6,-1,-7,-100,-100,-100,0,0,100,0.00,40.00,0,-999,0,0.01
2013-1-15,16,11,9,-100,-100,-100,0,0,100,0.00,40.00,0,-999,0,0.00
2013-1-16,32,20,10,-100,-100,-100,0,0,100,0.00,40.00,0,-999,0,0.00
2013-1-17,36,28,21,-100,-100,-100,0,0,100,0.00,40.00,0,-999,0,0.00
2013-1-18,38,30,25,-100,-100,-100,0,0,100,0.00,40.00,0,-999,0,0.00
2013-1-19,38,30,27,-100,-100,-100,0,0,100,0.00,40.00,0,-999,0,0.00
2013-1-20,35,30,26,-100,-100,-100,0,0,100,0.00,40.00,0,-999,0,0.00
2013-1-21,42,33,27,-100,-100,-100,0,0,100,0.00,40.00,0,-999,0,0.00
2013-1-22,45,38,31,-100,-100,-100,0,0,100,0.00,40.00,0,-999,0,0.00
2013-1-23,47,40,35,-100,-100,-100,0,0,100,0.00,40.00,0,-999,0,0.00
2013-1-24,41,36,32,-100,-100,-100,0,0,100,0.00,40.00,0,-999,0,0.01
2013-1-25,39,35,33,-100,-100,-100,0,0,100,0.00,40.00,0,-999,0,0.01
2013-1-26,40,35,31,-100,-100,-100,0,0,100,0.00,40.00,0,-999,0,0.00
2013-1-27,36,28,19,-100,-100,-100,0,0,100,0.00,40.00,0,-999,0,0.03
2013-1-28,21,16,12,-100,-100,-100,0,0,100,0.00,40.00,0,-999,0,0.02
2013-1-29,22,17,13,-100,-100,-100,0,0,100,0.00,40.00,0,-999,0,0.01
2013-1-30,28,23,18,-100,-100,-100,0,0,100,0.00,40.00,0,-999,0,0.02
2013-1-31,31,28,27,-100,-100,-100,0,0,100,0.00,40.00,0,-999,0,0.01